sensor_id;sensor_type;location;lat;lon;timestamp;P1;durP1;ratioP1;P2;durP2;ratioP2
66966;SDS011;53900;51.468;-2.586;2022-12-11T00:01:39;17.43;;;10.60;;
66966;SDS011;53900;51.468;-2.586;2022-12-11T00:04:05;23.40;;;10.00;;
66966;SDS011;53900;51.468;-2.586;2022-12-11T00:06:30;20.50;;;10.80;;
66966;SDS011;53900;51.468;-2.586;2022-12-11T00:08:55;23.43;;;11.27;;
66966;SDS011;53900;51.468;-2.586;2022-12-11T00:11:21;20.97;;;10.60;;
66966;SDS011;53900;51.468;-2.586;2022-12-11T00:13:47;20.80;;;10.67;;
66966;SDS011;53900;51.468;-2.586;2022-12-11T00:16:14;20.27;;;10.77;;
66966;SDS011;53900;51.468;-2.586;2022-12-11T00:18:39;18.33;;;9.60;;
66966;SDS011;53900;51.468;-2.586;2022-12-11T00:21:06;14.40;;;8.47;;
66966;SDS011;53900;51.468;-2.586;2022-12-11T00:23:35;18.27;;;9.07;;
66966;SDS011;53900;51.468;-2.586;2022-12-11T00:26:04;16.40;;;8.47;;
66966;SDS011;53900;51.468;-2.586;2022-12-11T00:28:31;15.30;;;8.00;;
66966;SDS011;53900;51.468;-2.586;2022-12-11T00:30:56;16.50;;;7.87;;
66966;SDS011;53900;51.468;-2.586;2022-12-11T00:33:21;21.90;;;10.87;;
66966;SDS011;53900;51.468;-2.586;2022-12-11T00:35:47;14.47;;;7.63;;
66966;SDS011;53900;51.468;-2.586;2022-12-11T00:38:16;14.40;;;8.23;;
66966;SDS011;53900;51.468;-2.586;2022-12-11T00:40:42;16.00;;;7.53;;
66966;SDS011;53900;51.468;-2.586;2022-12-11T00:43:08;15.77;;;8.17;;
66966;SDS011;53900;51.468;-2.586;2022-12-11T00:45:37;17.67;;;7.90;;
66966;SDS011;53900;51.468;-2.586;2022-12-11T00:48:04;14.83;;;8.33;;
66966;SDS011;53900;51.468;-2.586;2022-12-11T00:50:30;15.40;;;8.43;;
66966;SDS011;53900;51.468;-2.586;2022-12-11T00:52:55;15.93;;;8.03;;
66966;SDS011;53900;51.468;-2.586;2022-12-11T00:55:20;18.67;;;9.37;;
66966;SDS011;53900;51.468;-2.586;2022-12-11T00:57:46;14.40;;;7.17;;
66966;SDS011;53900;51.468;-2.586;2022-12-11T01:00:11;15.67;;;7.97;;
66966;SDS011;53900;51.468;-2.586;2022-12-11T01:02:37;13.87;;;7.83;;
66966;SDS011;53900;51.468;-2.586;2022-12-11T01:05:03;15.80;;;7.60;;
66966;SDS011;53900;51.468;-2.586;2022-12-11T01:07:29;13.67;;;7.20;;
66966;SDS011;53900;51.468;-2.586;2022-12-11T01:09:54;12.17;;;7.43;;
66966;SDS011;53900;51.468;-2.586;2022-12-11T01:12:38;17.93;;;8.33;;
66966;SDS011;53900;51.468;-2.586;2022-12-11T01:15:03;20.37;;;10.10;;
66966;SDS011;53900;51.468;-2.586;2022-12-11T01:17:30;19.60;;;8.73;;
66966;SDS011;53900;51.468;-2.586;2022-12-11T01:19:55;15.87;;;8.67;;
66966;SDS011;53900;51.468;-2.586;2022-12-11T01:22:20;16.20;;;8.10;;
66966;SDS011;53900;51.468;-2.586;2022-12-11T01:24:46;16.17;;;8.47;;
66966;SDS011;53900;51.468;-2.586;2022-12-11T01:27:11;15.97;;;8.70;;
66966;SDS011;53900;51.468;-2.586;2022-12-11T01:29:37;12.97;;;8.03;;
66966;SDS011;53900;51.468;-2.586;2022-12-11T01:32:02;14.30;;;8.07;;
66966;SDS011;53900;51.468;-2.586;2022-12-11T01:34:28;18.40;;;8.10;;
66966;SDS011;53900;51.468;-2.586;2022-12-11T01:36:54;17.80;;;8.27;;
66966;SDS011;53900;51.468;-2.586;2022-12-11T01:39:19;12.60;;;6.97;;
66966;SDS011;53900;51.468;-2.586;2022-12-11T01:41:44;17.80;;;8.53;;
66966;SDS011;53900;51.468;-2.586;2022-12-11T01:46:38;11.27;;;6.80;;
66966;SDS011;53900;51.468;-2.586;2022-12-11T01:49:05;12.77;;;7.27;;
66966;SDS011;53900;51.468;-2.586;2022-12-11T01:51:33;12.37;;;6.43;;
66966;SDS011;53900;51.468;-2.586;2022-12-11T01:54:04;14.55;;;6.28;;
66966;SDS011;53900;51.468;-2.586;2022-12-11T01:56:32;13.43;;;5.87;;
66966;SDS011;53900;51.468;-2.586;2022-12-11T01:58:59;9.03;;;6.17;;
66966;SDS011;53900;51.468;-2.586;2022-12-11T02:01:32;10.77;;;6.60;;
66966;SDS011;53900;51.468;-2.586;2022-12-11T02:04:02;16.87;;;7.13;;
66966;SDS011;53900;51.468;-2.586;2022-12-11T02:09:07;16.27;;;7.47;;
66966;SDS011;53900;51.468;-2.586;2022-12-11T02:11:39;17.87;;;7.23;;
66966;SDS011;53900;51.468;-2.586;2022-12-11T02:14:18;13.70;;;7.27;;
66966;SDS011;53900;51.468;-2.586;2022-12-11T02:17:04;15.20;;;8.27;;
66966;SDS011;53900;51.468;-2.586;2022-12-11T02:22:08;13.87;;;7.27;;
66966;SDS011;53900;51.468;-2.586;2022-12-11T02:24:47;16.63;;;7.90;;
66966;SDS011;53900;51.468;-2.586;2022-12-11T02:27:24;16.27;;;7.53;;
66966;SDS011;53900;51.468;-2.586;2022-12-11T02:30:10;14.57;;;7.40;;
66966;SDS011;53900;51.468;-2.586;2022-12-11T02:32:56;12.57;;;7.53;;
66966;SDS011;53900;51.468;-2.586;2022-12-11T02:37:58;13.43;;;7.07;;
66966;SDS011;53900;51.468;-2.586;2022-12-11T02:40:27;12.23;;;7.00;;
66966;SDS011;53900;51.468;-2.586;2022-12-11T02:42:54;13.57;;;6.53;;
66966;SDS011;53900;51.468;-2.586;2022-12-11T02:45:22;10.43;;;6.03;;
66966;SDS011;53900;51.468;-2.586;2022-12-11T02:47:48;11.33;;;6.23;;
66966;SDS011;53900;51.468;-2.586;2022-12-11T02:50:14;11.13;;;6.73;;
66966;SDS011;53900;51.468;-2.586;2022-12-11T02:52:42;12.10;;;6.10;;
66966;SDS011;53900;51.468;-2.586;2022-12-11T02:55:09;12.47;;;6.43;;
66966;SDS011;53900;51.468;-2.586;2022-12-11T02:57:37;8.20;;;5.30;;
66966;SDS011;53900;51.468;-2.586;2022-12-11T03:00:07;11.30;;;6.10;;
66966;SDS011;53900;51.468;-2.586;2022-12-11T03:02:33;12.10;;;6.23;;
66966;SDS011;53900;51.468;-2.586;2022-12-11T03:04:58;13.07;;;6.23;;
66966;SDS011;53900;51.468;-2.586;2022-12-11T03:07:25;12.50;;;6.30;;
66966;SDS011;53900;51.468;-2.586;2022-12-11T03:09:52;10.10;;;5.43;;
66966;SDS011;53900;51.468;-2.586;2022-12-11T03:12:18;12.23;;;5.77;;
66966;SDS011;53900;51.468;-2.586;2022-12-11T03:14:45;10.97;;;6.23;;
66966;SDS011;53900;51.468;-2.586;2022-12-11T03:17:16;11.40;;;5.50;;
66966;SDS011;53900;51.468;-2.586;2022-12-11T03:20:21;9.87;;;5.47;;
66966;SDS011;53900;51.468;-2.586;2022-12-11T03:22:46;9.93;;;5.63;;
66966;SDS011;53900;51.468;-2.586;2022-12-11T03:25:19;8.57;;;5.30;;
66966;SDS011;53900;51.468;-2.586;2022-12-11T03:30:32;10.33;;;5.67;;
66966;SDS011;53900;51.468;-2.586;2022-12-11T03:33:02;9.67;;;5.77;;
66966;SDS011;53900;51.468;-2.586;2022-12-11T03:35:49;9.40;;;5.60;;
66966;SDS011;53900;51.468;-2.586;2022-12-11T03:38:20;9.67;;;4.83;;
66966;SDS011;53900;51.468;-2.586;2022-12-11T03:40:55;9.27;;;5.53;;
66966;SDS011;53900;51.468;-2.586;2022-12-11T03:43:23;10.67;;;5.50;;
66966;SDS011;53900;51.468;-2.586;2022-12-11T03:45:49;9.40;;;5.17;;
66966;SDS011;53900;51.468;-2.586;2022-12-11T03:48:16;8.20;;;5.30;;
66966;SDS011;53900;51.468;-2.586;2022-12-11T03:50:42;8.03;;;5.50;;
66966;SDS011;53900;51.468;-2.586;2022-12-11T03:53:08;14.50;;;5.67;;
66966;SDS011;53900;51.468;-2.586;2022-12-11T03:55:34;11.10;;;5.10;;
66966;SDS011;53900;51.468;-2.586;2022-12-11T03:58:01;10.00;;;5.17;;
66966;SDS011;53900;51.468;-2.586;2022-12-11T04:00:26;8.30;;;5.07;;
66966;SDS011;53900;51.468;-2.586;2022-12-11T04:02:52;9.60;;;5.37;;
66966;SDS011;53900;51.468;-2.586;2022-12-11T04:05:38;9.17;;;5.43;;
66966;SDS011;53900;51.468;-2.586;2022-12-11T04:08:04;9.60;;;5.60;;
66966;SDS011;53900;51.468;-2.586;2022-12-11T04:10:30;9.83;;;5.57;;
66966;SDS011;53900;51.468;-2.586;2022-12-11T04:12:55;9.13;;;5.00;;
66966;SDS011;53900;51.468;-2.586;2022-12-11T04:15:20;8.70;;;5.37;;
66966;SDS011;53900;51.468;-2.586;2022-12-11T04:17:46;10.33;;;5.70;;
66966;SDS011;53900;51.468;-2.586;2022-12-11T04:20:30;7.57;;;5.07;;
66966;SDS011;53900;51.468;-2.586;2022-12-11T04:23:15;8.93;;;5.10;;
66966;SDS011;53900;51.468;-2.586;2022-12-11T04:26:07;6.80;;;4.63;;
66966;SDS011;53900;51.468;-2.586;2022-12-11T04:28:34;8.10;;;5.57;;
66966;SDS011;53900;51.468;-2.586;2022-12-11T04:31:00;10.37;;;5.40;;
66966;SDS011;53900;51.468;-2.586;2022-12-11T04:33:26;10.67;;;5.53;;
66966;SDS011;53900;51.468;-2.586;2022-12-11T04:35:51;12.07;;;5.57;;
66966;SDS011;53900;51.468;-2.586;2022-12-11T04:38:17;7.90;;;4.87;;
66966;SDS011;53900;51.468;-2.586;2022-12-11T04:40:42;10.13;;;5.27;;
66966;SDS011;53900;51.468;-2.586;2022-12-11T04:43:07;7.70;;;4.87;;
66966;SDS011;53900;51.468;-2.586;2022-12-11T04:45:33;10.60;;;5.70;;
66966;SDS011;53900;51.468;-2.586;2022-12-11T04:47:58;9.10;;;5.20;;
66966;SDS011;53900;51.468;-2.586;2022-12-11T04:50:23;8.13;;;4.97;;
66966;SDS011;53900;51.468;-2.586;2022-12-11T04:52:49;8.73;;;5.03;;
66966;SDS011;53900;51.468;-2.586;2022-12-11T04:55:14;8.47;;;4.63;;
66966;SDS011;53900;51.468;-2.586;2022-12-11T04:57:40;9.23;;;4.97;;
66966;SDS011;53900;51.468;-2.586;2022-12-11T05:00:06;8.80;;;5.20;;
66966;SDS011;53900;51.468;-2.586;2022-12-11T05:02:34;7.67;;;4.40;;
66966;SDS011;53900;51.468;-2.586;2022-12-11T05:05:00;8.37;;;5.27;;
66966;SDS011;53900;51.468;-2.586;2022-12-11T05:07:27;8.43;;;4.83;;
66966;SDS011;53900;51.468;-2.586;2022-12-11T05:09:52;10.53;;;5.10;;
66966;SDS011;53900;51.468;-2.586;2022-12-11T05:12:17;10.27;;;5.00;;
66966;SDS011;53900;51.468;-2.586;2022-12-11T05:14:43;7.70;;;4.60;;
66966;SDS011;53900;51.468;-2.586;2022-12-11T05:17:08;9.77;;;5.20;;
66966;SDS011;53900;51.468;-2.586;2022-12-11T05:19:33;11.37;;;5.20;;
66966;SDS011;53900;51.468;-2.586;2022-12-11T05:21:59;9.63;;;4.83;;
66966;SDS011;53900;51.468;-2.586;2022-12-11T05:24:24;9.77;;;4.83;;
66966;SDS011;53900;51.468;-2.586;2022-12-11T05:26:49;10.53;;;4.87;;
66966;SDS011;53900;51.468;-2.586;2022-12-11T05:29:15;8.17;;;5.17;;
66966;SDS011;53900;51.468;-2.586;2022-12-11T05:31:40;12.77;;;5.00;;
66966;SDS011;53900;51.468;-2.586;2022-12-11T05:34:05;8.80;;;4.57;;
66966;SDS011;53900;51.468;-2.586;2022-12-11T05:36:32;8.17;;;4.73;;
66966;SDS011;53900;51.468;-2.586;2022-12-11T05:38:58;7.63;;;4.73;;
66966;SDS011;53900;51.468;-2.586;2022-12-11T05:41:25;8.30;;;4.90;;
66966;SDS011;53900;51.468;-2.586;2022-12-11T05:43:51;9.73;;;5.40;;
66966;SDS011;53900;51.468;-2.586;2022-12-11T05:46:20;8.47;;;5.00;;
66966;SDS011;53900;51.468;-2.586;2022-12-11T05:48:49;7.87;;;4.70;;
66966;SDS011;53900;51.468;-2.586;2022-12-11T05:51:16;9.37;;;5.77;;
66966;SDS011;53900;51.468;-2.586;2022-12-11T05:53:42;9.43;;;5.13;;
66966;SDS011;53900;51.468;-2.586;2022-12-11T05:56:18;8.97;;;5.10;;
66966;SDS011;53900;51.468;-2.586;2022-12-11T05:58:52;8.80;;;5.30;;
66966;SDS011;53900;51.468;-2.586;2022-12-11T06:01:27;9.03;;;5.67;;
66966;SDS011;53900;51.468;-2.586;2022-12-11T06:03:55;7.50;;;5.10;;
66966;SDS011;53900;51.468;-2.586;2022-12-11T06:06:21;8.20;;;5.30;;
66966;SDS011;53900;51.468;-2.586;2022-12-11T06:08:50;9.50;;;5.20;;
66966;SDS011;53900;51.468;-2.586;2022-12-11T06:11:16;8.43;;;5.40;;
66966;SDS011;53900;51.468;-2.586;2022-12-11T06:13:42;9.30;;;5.40;;
66966;SDS011;53900;51.468;-2.586;2022-12-11T06:16:07;9.07;;;5.27;;
66966;SDS011;53900;51.468;-2.586;2022-12-11T06:18:34;9.60;;;5.17;;
66966;SDS011;53900;51.468;-2.586;2022-12-11T06:21:00;9.00;;;5.03;;
66966;SDS011;53900;51.468;-2.586;2022-12-11T06:23:26;8.97;;;5.13;;
66966;SDS011;53900;51.468;-2.586;2022-12-11T06:25:51;9.00;;;5.43;;
66966;SDS011;53900;51.468;-2.586;2022-12-11T06:28:17;6.93;;;4.27;;
66966;SDS011;53900;51.468;-2.586;2022-12-11T06:30:42;7.80;;;4.77;;
66966;SDS011;53900;51.468;-2.586;2022-12-11T06:33:07;8.73;;;5.30;;
66966;SDS011;53900;51.468;-2.586;2022-12-11T06:35:33;11.30;;;5.33;;
66966;SDS011;53900;51.468;-2.586;2022-12-11T06:37:58;9.23;;;5.00;;
66966;SDS011;53900;51.468;-2.586;2022-12-11T06:40:23;8.63;;;5.50;;
66966;SDS011;53900;51.468;-2.586;2022-12-11T06:42:49;7.00;;;4.97;;
66966;SDS011;53900;51.468;-2.586;2022-12-11T06:45:14;8.97;;;5.57;;
66966;SDS011;53900;51.468;-2.586;2022-12-11T06:47:39;11.33;;;5.63;;
66966;SDS011;53900;51.468;-2.586;2022-12-11T06:50:05;7.27;;;5.27;;
66966;SDS011;53900;51.468;-2.586;2022-12-11T06:52:30;7.57;;;5.17;;
66966;SDS011;53900;51.468;-2.586;2022-12-11T06:54:56;8.10;;;5.20;;
66966;SDS011;53900;51.468;-2.586;2022-12-11T06:57:21;10.40;;;6.17;;
66966;SDS011;53900;51.468;-2.586;2022-12-11T06:59:47;9.70;;;5.40;;
66966;SDS011;53900;51.468;-2.586;2022-12-11T07:02:16;10.80;;;5.97;;
66966;SDS011;53900;51.468;-2.586;2022-12-11T07:04:42;9.70;;;5.70;;
66966;SDS011;53900;51.468;-2.586;2022-12-11T07:07:08;10.00;;;5.70;;
66966;SDS011;53900;51.468;-2.586;2022-12-11T07:09:34;9.77;;;5.43;;
66966;SDS011;53900;51.468;-2.586;2022-12-11T07:12:01;11.13;;;5.63;;
66966;SDS011;53900;51.468;-2.586;2022-12-11T07:14:28;9.33;;;5.90;;
66966;SDS011;53900;51.468;-2.586;2022-12-11T07:16:54;10.97;;;5.63;;
66966;SDS011;53900;51.468;-2.586;2022-12-11T07:19:20;9.90;;;5.63;;
66966;SDS011;53900;51.468;-2.586;2022-12-11T07:21:45;9.77;;;5.80;;
66966;SDS011;53900;51.468;-2.586;2022-12-11T07:24:10;10.87;;;5.47;;
66966;SDS011;53900;51.468;-2.586;2022-12-11T07:26:36;10.67;;;6.50;;
66966;SDS011;53900;51.468;-2.586;2022-12-11T07:29:01;9.23;;;5.70;;
66966;SDS011;53900;51.468;-2.586;2022-12-11T07:31:27;10.63;;;5.77;;
66966;SDS011;53900;51.468;-2.586;2022-12-11T07:33:57;9.63;;;5.93;;
66966;SDS011;53900;51.468;-2.586;2022-12-11T07:36:24;8.97;;;5.50;;
66966;SDS011;53900;51.468;-2.586;2022-12-11T07:38:49;10.30;;;6.13;;
66966;SDS011;53900;51.468;-2.586;2022-12-11T07:41:15;9.27;;;5.73;;
66966;SDS011;53900;51.468;-2.586;2022-12-11T07:43:41;9.63;;;6.17;;
66966;SDS011;53900;51.468;-2.586;2022-12-11T07:46:18;10.90;;;6.47;;
66966;SDS011;53900;51.468;-2.586;2022-12-11T07:48:45;12.60;;;6.20;;
66966;SDS011;53900;51.468;-2.586;2022-12-11T07:51:22;10.43;;;5.97;;
66966;SDS011;53900;51.468;-2.586;2022-12-11T07:53:51;12.40;;;6.50;;
66966;SDS011;53900;51.468;-2.586;2022-12-11T07:56:21;8.77;;;5.72;;
66966;SDS011;53900;51.468;-2.586;2022-12-11T07:58:47;10.80;;;5.67;;
66966;SDS011;53900;51.468;-2.586;2022-12-11T08:01:13;12.67;;;6.30;;
66966;SDS011;53900;51.468;-2.586;2022-12-11T08:03:40;12.40;;;6.30;;
66966;SDS011;53900;51.468;-2.586;2022-12-11T08:06:06;12.07;;;6.63;;
66966;SDS011;53900;51.468;-2.586;2022-12-11T08:08:32;18.03;;;8.10;;
66966;SDS011;53900;51.468;-2.586;2022-12-11T08:11:04;12.70;;;7.37;;
66966;SDS011;53900;51.468;-2.586;2022-12-11T08:13:31;13.50;;;6.97;;
66966;SDS011;53900;51.468;-2.586;2022-12-11T08:15:56;12.80;;;7.50;;
66966;SDS011;53900;51.468;-2.586;2022-12-11T08:18:22;13.77;;;7.43;;
66966;SDS011;53900;51.468;-2.586;2022-12-11T08:20:47;12.27;;;7.10;;
66966;SDS011;53900;51.468;-2.586;2022-12-11T08:23:12;13.37;;;7.57;;
66966;SDS011;53900;51.468;-2.586;2022-12-11T08:25:38;12.20;;;7.10;;
66966;SDS011;53900;51.468;-2.586;2022-12-11T08:28:03;13.27;;;7.40;;
66966;SDS011;53900;51.468;-2.586;2022-12-11T08:30:29;17.07;;;7.43;;
66966;SDS011;53900;51.468;-2.586;2022-12-11T08:32:54;11.57;;;7.27;;
66966;SDS011;53900;51.468;-2.586;2022-12-11T08:35:19;11.07;;;6.60;;
66966;SDS011;53900;51.468;-2.586;2022-12-11T08:37:45;14.17;;;7.33;;
66966;SDS011;53900;51.468;-2.586;2022-12-11T08:40:10;11.43;;;7.00;;
66966;SDS011;53900;51.468;-2.586;2022-12-11T08:42:36;13.27;;;7.97;;
66966;SDS011;53900;51.468;-2.586;2022-12-11T08:45:02;14.67;;;7.53;;
66966;SDS011;53900;51.468;-2.586;2022-12-11T08:47:28;13.93;;;7.50;;
66966;SDS011;53900;51.468;-2.586;2022-12-11T08:49:53;13.77;;;7.93;;
66966;SDS011;53900;51.468;-2.586;2022-12-11T08:52:18;16.23;;;8.17;;
66966;SDS011;53900;51.468;-2.586;2022-12-11T08:54:43;15.37;;;7.77;;
66966;SDS011;53900;51.468;-2.586;2022-12-11T08:57:09;14.80;;;7.53;;
66966;SDS011;53900;51.468;-2.586;2022-12-11T08:59:34;12.40;;;7.30;;
66966;SDS011;53900;51.468;-2.586;2022-12-11T09:01:59;14.33;;;7.77;;
66966;SDS011;53900;51.468;-2.586;2022-12-11T09:04:25;15.30;;;8.23;;
66966;SDS011;53900;51.468;-2.586;2022-12-11T09:06:50;12.40;;;7.83;;
66966;SDS011;53900;51.468;-2.586;2022-12-11T09:09:16;16.63;;;9.10;;
66966;SDS011;53900;51.468;-2.586;2022-12-11T09:11:41;15.83;;;9.03;;
66966;SDS011;53900;51.468;-2.586;2022-12-11T09:14:06;15.17;;;8.23;;
66966;SDS011;53900;51.468;-2.586;2022-12-11T09:16:32;14.53;;;8.00;;
66966;SDS011;53900;51.468;-2.586;2022-12-11T09:19:01;18.43;;;8.10;;
66966;SDS011;53900;51.468;-2.586;2022-12-11T09:21:27;18.60;;;8.90;;
66966;SDS011;53900;51.468;-2.586;2022-12-11T09:23:54;14.67;;;8.43;;
66966;SDS011;53900;51.468;-2.586;2022-12-11T09:26:21;18.70;;;9.07;;
66966;SDS011;53900;51.468;-2.586;2022-12-11T09:28:47;14.50;;;8.00;;
66966;SDS011;53900;51.468;-2.586;2022-12-11T09:31:22;18.20;;;9.47;;
66966;SDS011;53900;51.468;-2.586;2022-12-11T09:33:50;18.20;;;9.00;;
66966;SDS011;53900;51.468;-2.586;2022-12-11T09:36:17;14.73;;;8.63;;
66966;SDS011;53900;51.468;-2.586;2022-12-11T09:38:43;19.13;;;9.03;;
66966;SDS011;53900;51.468;-2.586;2022-12-11T09:46:34;18.87;;;9.60;;
66966;SDS011;53900;51.468;-2.586;2022-12-11T09:49:00;20.13;;;9.90;;
66966;SDS011;53900;51.468;-2.586;2022-12-11T09:51:28;18.83;;;9.60;;
66966;SDS011;53900;51.468;-2.586;2022-12-11T09:54:02;24.17;;;10.33;;
66966;SDS011;53900;51.468;-2.586;2022-12-11T09:56:31;25.23;;;11.33;;
66966;SDS011;53900;51.468;-2.586;2022-12-11T10:07:08;17.50;;;9.60;;
66966;SDS011;53900;51.468;-2.586;2022-12-11T10:14:30;22.30;;;10.67;;
66966;SDS011;53900;51.468;-2.586;2022-12-11T10:17:11;22.00;;;10.10;;
66966;SDS011;53900;51.468;-2.586;2022-12-11T10:19:40;22.50;;;10.40;;
66966;SDS011;53900;51.468;-2.586;2022-12-11T10:22:08;19.17;;;10.43;;
66966;SDS011;53900;51.468;-2.586;2022-12-11T10:24:59;20.50;;;10.13;;
66966;SDS011;53900;51.468;-2.586;2022-12-11T10:27:29;21.27;;;10.90;;
66966;SDS011;53900;51.468;-2.586;2022-12-11T10:32:49;22.17;;;10.03;;
66966;SDS011;53900;51.468;-2.586;2022-12-11T10:40:58;17.10;;;9.63;;
66966;SDS011;53900;51.468;-2.586;2022-12-11T10:43:34;17.70;;;10.50;;
66966;SDS011;53900;51.468;-2.586;2022-12-11T10:46:02;24.97;;;11.00;;
66966;SDS011;53900;51.468;-2.586;2022-12-11T10:48:28;17.47;;;10.30;;
66966;SDS011;53900;51.468;-2.586;2022-12-11T10:50:57;22.90;;;11.13;;
66966;SDS011;53900;51.468;-2.586;2022-12-11T10:53:26;22.37;;;10.07;;
66966;SDS011;53900;51.468;-2.586;2022-12-11T10:55:53;19.47;;;10.20;;
66966;SDS011;53900;51.468;-2.586;2022-12-11T10:58:19;28.17;;;11.87;;
66966;SDS011;53900;51.468;-2.586;2022-12-11T11:00:56;18.73;;;10.20;;
66966;SDS011;53900;51.468;-2.586;2022-12-11T11:03:27;21.57;;;10.97;;
66966;SDS011;53900;51.468;-2.586;2022-12-11T11:06:03;20.03;;;10.33;;
66966;SDS011;53900;51.468;-2.586;2022-12-11T11:08:44;20.27;;;10.88;;
66966;SDS011;53900;51.468;-2.586;2022-12-11T11:11:30;19.30;;;10.15;;
66966;SDS011;53900;51.468;-2.586;2022-12-11T11:16:45;18.83;;;11.13;;
66966;SDS011;53900;51.468;-2.586;2022-12-11T11:19:18;25.45;;;12.10;;
66966;SDS011;53900;51.468;-2.586;2022-12-11T11:21:49;22.17;;;11.40;;
66966;SDS011;53900;51.468;-2.586;2022-12-11T11:24:20;23.90;;;12.73;;
66966;SDS011;53900;51.468;-2.586;2022-12-11T11:26:50;21.80;;;11.95;;
66966;SDS011;53900;51.468;-2.586;2022-12-11T11:29:21;23.50;;;12.13;;
66966;SDS011;53900;51.468;-2.586;2022-12-11T11:31:50;21.85;;;11.43;;
66966;SDS011;53900;51.468;-2.586;2022-12-11T11:34:17;24.20;;;13.03;;
66966;SDS011;53900;51.468;-2.586;2022-12-11T11:36:45;25.27;;;12.15;;
66966;SDS011;53900;51.468;-2.586;2022-12-11T11:44:29;23.20;;;11.30;;
66966;SDS011;53900;51.468;-2.586;2022-12-11T11:47:13;26.33;;;12.90;;
66966;SDS011;53900;51.468;-2.586;2022-12-11T11:49:46;27.40;;;13.10;;
66966;SDS011;53900;51.468;-2.586;2022-12-11T12:00:55;26.23;;;12.20;;
66966;SDS011;53900;51.468;-2.586;2022-12-11T12:03:20;25.67;;;12.83;;
66966;SDS011;53900;51.468;-2.586;2022-12-11T12:10:48;23.47;;;12.47;;
66966;SDS011;53900;51.468;-2.586;2022-12-11T12:13:21;35.72;;;12.68;;
66966;SDS011;53900;51.468;-2.586;2022-12-11T12:15:57;25.07;;;11.17;;
66966;SDS011;53900;51.468;-2.586;2022-12-11T12:21:31;24.97;;;12.10;;
66966;SDS011;53900;51.468;-2.586;2022-12-11T12:26:30;21.93;;;10.53;;
66966;SDS011;53900;51.468;-2.586;2022-12-11T12:31:58;23.30;;;11.03;;
66966;SDS011;53900;51.468;-2.586;2022-12-11T12:34:34;21.77;;;10.50;;
66966;SDS011;53900;51.468;-2.586;2022-12-11T12:39:52;20.17;;;9.97;;
66966;SDS011;53900;51.468;-2.586;2022-12-11T12:47:35;19.90;;;9.60;;
66966;SDS011;53900;51.468;-2.586;2022-12-11T12:50:02;18.03;;;9.53;;
66966;SDS011;53900;51.468;-2.586;2022-12-11T12:54:59;18.52;;;9.55;;
66966;SDS011;53900;51.468;-2.586;2022-12-11T12:57:47;22.53;;;10.50;;
66966;SDS011;53900;51.468;-2.586;2022-12-11T13:03:20;21.20;;;9.77;;
66966;SDS011;53900;51.468;-2.586;2022-12-11T13:05:57;26.07;;;10.83;;
66966;SDS011;53900;51.468;-2.586;2022-12-11T13:08:28;18.03;;;9.60;;
66966;SDS011;53900;51.468;-2.586;2022-12-11T13:11:09;20.50;;;10.53;;
66966;SDS011;53900;51.468;-2.586;2022-12-11T13:16:07;19.33;;;9.50;;
66966;SDS011;53900;51.468;-2.586;2022-12-11T13:18:53;20.70;;;10.00;;
66966;SDS011;53900;51.468;-2.586;2022-12-11T13:21:35;25.60;;;9.70;;
66966;SDS011;53900;51.468;-2.586;2022-12-11T13:26:36;23.13;;;10.97;;
66966;SDS011;53900;51.468;-2.586;2022-12-11T13:29:02;22.57;;;10.67;;
66966;SDS011;53900;51.468;-2.586;2022-12-11T13:31:32;20.70;;;10.20;;
66966;SDS011;53900;51.468;-2.586;2022-12-11T13:34:05;20.37;;;11.03;;
66966;SDS011;53900;51.468;-2.586;2022-12-11T13:36:34;22.60;;;10.80;;
66966;SDS011;53900;51.468;-2.586;2022-12-11T13:39:02;20.13;;;10.47;;
66966;SDS011;53900;51.468;-2.586;2022-12-11T13:41:31;20.90;;;10.35;;
66966;SDS011;53900;51.468;-2.586;2022-12-11T13:43:58;21.80;;;10.87;;
66966;SDS011;53900;51.468;-2.586;2022-12-11T13:46:26;20.33;;;10.53;;
66966;SDS011;53900;51.468;-2.586;2022-12-11T13:48:56;22.13;;;11.30;;
66966;SDS011;53900;51.468;-2.586;2022-12-11T13:51:25;23.87;;;11.20;;
66966;SDS011;53900;51.468;-2.586;2022-12-11T13:54:01;19.73;;;10.97;;
66966;SDS011;53900;51.468;-2.586;2022-12-11T13:56:52;20.63;;;11.77;;
66966;SDS011;53900;51.468;-2.586;2022-12-11T13:59:48;23.00;;;11.10;;
66966;SDS011;53900;51.468;-2.586;2022-12-11T14:02:22;21.57;;;11.50;;
66966;SDS011;53900;51.468;-2.586;2022-12-11T14:05:01;19.33;;;10.77;;
66966;SDS011;53900;51.468;-2.586;2022-12-11T14:07:29;19.63;;;10.90;;
66966;SDS011;53900;51.468;-2.586;2022-12-11T14:10:02;21.80;;;11.67;;
66966;SDS011;53900;51.468;-2.586;2022-12-11T14:12:30;21.43;;;11.37;;
66966;SDS011;53900;51.468;-2.586;2022-12-11T14:14:56;21.80;;;10.93;;
66966;SDS011;53900;51.468;-2.586;2022-12-11T14:17:27;23.97;;;12.20;;
66966;SDS011;53900;51.468;-2.586;2022-12-11T14:19:53;23.23;;;11.47;;
66966;SDS011;53900;51.468;-2.586;2022-12-11T14:22:23;28.23;;;12.90;;
66966;SDS011;53900;51.468;-2.586;2022-12-11T14:24:52;29.90;;;13.23;;
66966;SDS011;53900;51.468;-2.586;2022-12-11T14:27:19;24.17;;;11.53;;
66966;SDS011;53900;51.468;-2.586;2022-12-11T14:29:45;22.07;;;11.73;;
66966;SDS011;53900;51.468;-2.586;2022-12-11T14:32:15;23.10;;;12.13;;
66966;SDS011;53900;51.468;-2.586;2022-12-11T14:34:43;22.30;;;11.47;;
66966;SDS011;53900;51.468;-2.586;2022-12-11T14:37:09;22.40;;;11.30;;
66966;SDS011;53900;51.468;-2.586;2022-12-11T14:39:37;22.00;;;11.97;;
66966;SDS011;53900;51.468;-2.586;2022-12-11T14:42:07;25.87;;;11.90;;
66966;SDS011;53900;51.468;-2.586;2022-12-11T14:44:40;22.08;;;11.88;;
66966;SDS011;53900;51.468;-2.586;2022-12-11T14:47:15;26.03;;;12.00;;
66966;SDS011;53900;51.468;-2.586;2022-12-11T14:52:16;21.63;;;11.43;;
66966;SDS011;53900;51.468;-2.586;2022-12-11T14:54:45;20.70;;;11.60;;
66966;SDS011;53900;51.468;-2.586;2022-12-11T14:57:19;24.73;;;11.20;;
66966;SDS011;53900;51.468;-2.586;2022-12-11T14:59:47;20.37;;;11.63;;
66966;SDS011;53900;51.468;-2.586;2022-12-11T15:05:02;22.93;;;11.97;;
66966;SDS011;53900;51.468;-2.586;2022-12-11T15:07:38;20.87;;;11.73;;
66966;SDS011;53900;51.468;-2.586;2022-12-11T15:10:05;23.30;;;11.27;;
66966;SDS011;53900;51.468;-2.586;2022-12-11T15:12:31;23.60;;;12.27;;
66966;SDS011;53900;51.468;-2.586;2022-12-11T15:15:00;24.67;;;11.93;;
66966;SDS011;53900;51.468;-2.586;2022-12-11T15:17:28;20.93;;;11.77;;
66966;SDS011;53900;51.468;-2.586;2022-12-11T15:20:07;23.43;;;10.77;;
66966;SDS011;53900;51.468;-2.586;2022-12-11T15:22:35;24.07;;;11.17;;
66966;SDS011;53900;51.468;-2.586;2022-12-11T15:25:01;21.17;;;11.23;;
66966;SDS011;53900;51.468;-2.586;2022-12-11T15:27:36;23.10;;;12.37;;
66966;SDS011;53900;51.468;-2.586;2022-12-11T15:30:53;24.93;;;12.53;;
66966;SDS011;53900;51.468;-2.586;2022-12-11T15:35:33;19.57;;;11.70;;
66966;SDS011;53900;51.468;-2.586;2022-12-11T15:37:59;23.97;;;12.53;;
66966;SDS011;53900;51.468;-2.586;2022-12-11T15:40:24;26.13;;;13.37;;
66966;SDS011;53900;51.468;-2.586;2022-12-11T15:42:50;23.37;;;11.57;;
66966;SDS011;53900;51.468;-2.586;2022-12-11T15:45:20;22.63;;;11.00;;
66966;SDS011;53900;51.468;-2.586;2022-12-11T15:47:47;20.33;;;11.57;;
66966;SDS011;53900;51.468;-2.586;2022-12-11T15:50:20;18.20;;;9.50;;
66966;SDS011;53900;51.468;-2.586;2022-12-11T15:52:51;18.40;;;9.77;;
66966;SDS011;53900;51.468;-2.586;2022-12-11T15:55:18;17.83;;;9.00;;
66966;SDS011;53900;51.468;-2.586;2022-12-11T15:57:45;16.83;;;10.10;;
66966;SDS011;53900;51.468;-2.586;2022-12-11T16:00:14;19.90;;;10.87;;
66966;SDS011;53900;51.468;-2.586;2022-12-11T16:02:40;20.50;;;10.87;;
66966;SDS011;53900;51.468;-2.586;2022-12-11T16:05:06;17.23;;;9.37;;
66966;SDS011;53900;51.468;-2.586;2022-12-11T16:07:31;18.47;;;8.60;;